Time;durP1;ratioP1;P1;durP2;ratioP2;P2;SDS_P1;SDS_P2;PMS_P1;PMS_P2;Temp;Humidity;BMP_temperature;BMP_pressure;BME280_temperature;BME280_humidity;BME280_pressure;Samples;Min_cycle;Max_cycle;Signal;HPM_P1;HPM_P2
2021/10/20 00:00:40;;;;;;;2.97;1.27;;;2.50;85.80;;;;;;5032583;28;20447;-74
2021/10/20 00:03:06;;;;;;;3.38;1.10;;;2.50;85.30;;;;;;5033318;28;20052;-75
2021/10/20 00:05:31;;;;;;;2.78;0.90;;;2.40;85.30;;;;;;5034458;28;20148;-76
2021/10/20 00:07:58;;;;;;;1.38;1.27;;;2.30;85.50;;;;;;5035830;28;20025;-75
2021/10/20 00:10:24;;;;;;;2.35;1.15;;;2.30;85.80;;;;;;5035702;28;20364;-76
2021/10/20 00:12:51;;;;;;;1.58;1.30;;;2.30;85.90;;;;;;5026970;28;20034;-76
2021/10/20 00:15:21;;;;;;;4.35;1.58;;;2.20;85.80;;;;;;5030192;28;20033;-76
2021/10/20 00:17:48;;;;;;;2.95;1.50;;;2.20;86.00;;;;;;5035995;28;20363;-75
2021/10/20 00:20:19;;;;;;;2.58;1.00;;;2.10;86.20;;;;;;5035845;28;20573;-74
2021/10/20 00:22:45;;;;;;;2.83;1.40;;;2.10;86.60;;;;;;5034716;28;20064;-76
2021/10/20 00:25:12;;;;;;;4.05;1.83;;;2.00;87.00;;;;;;5035444;28;20061;-77
2021/10/20 00:27:38;;;;;;;2.45;1.35;;;2.00;87.30;;;;;;5035416;28;20036;-76
2021/10/20 00:30:05;;;;;;;2.08;1.88;;;2.00;87.60;;;;;;5034141;28;20029;-74
2021/10/20 00:32:31;;;;;;;3.80;1.83;;;2.00;87.80;;;;;;5034023;28;20021;-75
2021/10/20 00:34:56;;;;;;;3.10;1.65;;;2.00;88.00;;;;;;5035517;28;20108;-75
2021/10/20 00:37:22;;;;;;;2.10;1.60;;;2.00;88.30;;;;;;5030631;28;20018;-74
2021/10/20 00:39:48;;;;;;;1.45;1.33;;;2.00;88.50;;;;;;5025873;28;20450;-76
2021/10/20 00:42:16;;;;;;;2.53;1.65;;;2.00;88.80;;;;;;5035015;28;20045;-75
2021/10/20 00:44:57;;;;;;;2.03;1.55;;;2.00;89.10;;;;;;5034830;28;20112;-76
2021/10/20 00:47:24;;;;;;;3.25;1.65;;;2.00;89.40;;;;;;5035104;28;20021;-75
2021/10/20 00:49:51;;;;;;;2.47;2.10;;;2.00;89.60;;;;;;5033502;28;20037;-74
2021/10/20 00:52:18;;;;;;;3.45;1.75;;;2.00;89.70;;;;;;5021499;28;20083;-75
2021/10/20 00:54:44;;;;;;;3.33;2.33;;;2.00;89.80;;;;;;5034880;28;20025;-75
2021/10/20 00:57:11;;;;;;;2.33;1.63;;;2.00;90.00;;;;;;5034809;28;20463;-74
2021/10/20 00:59:39;;;;;;;2.28;1.70;;;2.00;90.00;;;;;;5034676;28;20068;-74
2021/10/20 01:02:04;;;;;;;;;;;1.90;90.10;;;;;;5035288;28;20390;-73
2021/10/20 01:04:31;;;;;;;3.47;2.20;;;1.90;90.00;;;;;;5034706;28;19917;-74
2021/10/20 01:06:56;;;;;;;2.90;1.65;;;1.80;90.20;;;;;;5034681;28;20026;-73
2021/10/20 01:09:23;;;;;;;1.95;1.48;;;1.80;90.40;;;;;;5033373;28;20028;-73
2021/10/20 01:11:49;;;;;;;3.03;1.80;;;1.80;90.50;;;;;;5032457;28;20026;-75
2021/10/20 01:14:15;;;;;;;4.13;1.75;;;1.90;90.50;;;;;;5034651;28;20040;-72
2021/10/20 01:16:42;;;;;;;3.88;1.95;;;1.90;90.40;;;;;;5034504;28;20486;-72
2021/10/20 01:19:09;;;;;;;2.00;1.50;;;1.90;90.40;;;;;;5029274;28;20028;-73
2021/10/20 01:21:36;;;;;;;2.80;2.07;;;1.90;90.30;;;;;;5015040;28;20022;-74
2021/10/20 01:24:02;;;;;;;2.35;1.77;;;1.90;90.20;;;;;;5015181;28;20379;-73
2021/10/20 01:26:29;;;;;;;2.10;1.50;;;1.80;90.10;;;;;;5014795;28;20060;-74
2021/10/20 01:28:55;;;;;;;2.22;1.70;;;1.80;90.10;;;;;;5014717;28;20026;-75
2021/10/20 01:31:21;;;;;;;5.80;1.70;;;1.80;90.20;;;;;;5014556;28;20030;-75
2021/10/20 01:33:47;;;;;;;2.13;1.63;;;1.80;90.10;;;;;;5014600;28;20030;-72
2021/10/20 01:36:13;;;;;;;2.80;1.73;;;1.80;90.00;;;;;;5014509;28;20056;-74
2021/10/20 01:38:39;;;;;;;1.75;1.25;;;1.70;89.30;;;;;;5014462;28;20054;-72
2021/10/20 01:41:05;;;;;;;2.70;1.90;;;1.70;88.90;;;;;;5014452;28;20025;-73
2021/10/20 01:43:42;;;;;;;4.43;1.73;;;1.70;88.70;;;;;;5014256;28;20542;-73
2021/10/20 01:46:10;;;;;;;1.60;1.40;;;1.70;88.90;;;;;;5014412;28;20034;-74
2021/10/20 01:48:36;;;;;;;3.90;2.00;;;1.60;88.50;;;;;;5014626;28;20426;-73
2021/10/20 01:51:02;;;;;;;1.98;1.40;;;1.60;88.90;;;;;;5012576;28;20030;-74
2021/10/20 01:53:28;;;;;;;3.13;1.58;;;1.50;89.30;;;;;;5014282;28;20018;-73
2021/10/20 01:55:54;;;;;;;2.53;1.35;;;1.50;89.60;;;;;;5014136;28;20450;-74
2021/10/20 01:58:20;;;;;;;1.55;1.30;;;1.40;89.60;;;;;;5014233;28;20052;-74
2021/10/20 02:00:46;;;;;;;2.20;1.38;;;1.40;89.70;;;;;;5014112;28;20026;-73
2021/10/20 02:03:11;;;;;;;2.15;1.38;;;1.40;89.90;;;;;;5032010;28;20021;-74
2021/10/20 02:05:37;;;;;;;1.25;1.10;;;1.40;90.00;;;;;;5033673;28;20029;-72
2021/10/20 02:08:03;;;;;;;2.78;2.05;;;1.40;90.00;;;;;;5033877;28;20021;-72
2021/10/20 02:10:29;;;;;;;2.63;1.40;;;1.40;89.80;;;;;;5024523;28;20422;-73
2021/10/20 02:12:55;;;;;;;2.92;1.83;;;1.40;89.60;;;;;;5014611;28;20026;-74
2021/10/20 02:15:21;;;;;;;2.55;1.48;;;1.40;89.60;;;;;;5014827;28;20029;-73
2021/10/20 02:17:47;;;;;;;1.95;1.48;;;1.30;89.60;;;;;;5013887;28;20029;-74
2021/10/20 02:20:14;;;;;;;2.15;1.40;;;1.30;89.50;;;;;;5014130;28;20033;-72
2021/10/20 02:22:42;;;;;;;5.57;2.03;;;1.30;89.70;;;;;;5014188;28;20030;-73
2021/10/20 02:25:09;;;;;;;3.95;1.40;;;1.30;89.80;;;;;;5045426;28;20037;-74
2021/10/20 02:27:36;;;;;;;3.88;1.88;;;1.30;90.00;;;;;;5013684;28;20022;-73
2021/10/20 02:30:04;;;;;;;3.05;1.90;;;1.30;90.10;;;;;;5013804;28;20028;-73
2021/10/20 02:32:30;;;;;;;3.33;2.13;;;1.30;90.20;;;;;;5013660;28;20021;-74
2021/10/20 02:34:56;;;;;;;2.47;1.77;;;1.30;90.20;;;;;;5013561;28;20438;-73
2021/10/20 02:37:21;;;;;;;11.05;1.90;;;1.30;90.20;;;;;;5013654;28;20021;-73
2021/10/20 02:39:47;;;;;;;2.10;1.70;;;1.20;90.20;;;;;;5013783;28;20080;-74
2021/10/20 02:42:13;;;;;;;2.38;1.90;;;1.20;90.40;;;;;;5013710;28;20111;-75
2021/10/20 02:44:39;;;;;;;3.55;1.98;;;1.10;90.40;;;;;;5013310;28;20048;-75
2021/10/20 02:47:04;;;;;;;10.25;2.40;;;1.20;90.40;;;;;;5013737;28;20046;-73
2021/10/20 02:49:30;;;;;;;3.58;2.28;;;1.10;90.50;;;;;;5013430;28;20105;-73
2021/10/20 02:51:56;;;;;;;3.30;1.85;;;1.10;90.70;;;;;;5013230;28;20029;-74
2021/10/20 02:54:22;;;;;;;3.13;2.30;;;1.00;90.90;;;;;;5013657;28;20029;-76
2021/10/20 02:56:48;;;;;;;2.40;1.92;;;1.10;91.00;;;;;;5013761;28;20026;-74
2021/10/20 02:59:14;;;;;;;4.18;1.90;;;1.10;91.00;;;;;;5013773;28;20061;-74
2021/10/20 03:01:41;;;;;;;6.00;1.88;;;1.10;90.90;;;;;;5018892;28;20021;-74
2021/10/20 03:04:06;;;;;;;15.85;3.13;;;1.10;90.80;;;;;;5032351;28;20025;-73
2021/10/20 03:06:32;;;;;;;3.13;1.88;;;1.00;90.80;;;;;;5032886;28;20470;-74
2021/10/20 03:08:58;;;;;;;2.58;2.10;;;1.00;90.80;;;;;;5025804;28;20022;-74
2021/10/20 03:11:24;;;;;;;5.75;2.45;;;1.00;91.00;;;;;;5013244;28;20418;-74
2021/10/20 03:13:50;;;;;;;3.97;2.90;;;1.10;91.10;;;;;;5013468;28;20111;-74
2021/10/20 03:16:16;;;;;;;3.72;2.17;;;1.10;91.00;;;;;;5013289;28;20475;-74
2021/10/20 03:18:42;;;;;;;4.72;2.83;;;1.20;90.80;;;;;;5014367;28;20044;-75
2021/10/20 03:21:08;;;;;;;3.58;2.55;;;1.20;90.70;;;;;;5014422;28;20503;-74
2021/10/20 03:23:34;;;;;;;5.40;3.03;;;1.20;90.60;;;;;;5012980;28;20029;-75
2021/10/20 03:25:59;;;;;;;4.35;3.55;;;1.20;90.60;;;;;;5012912;28;20037;-77
2021/10/20 03:28:25;;;;;;;4.15;2.88;;;1.20;90.70;;;;;;5012922;28;20022;-74
2021/10/20 03:30:51;;;;;;;3.75;2.67;;;1.30;90.60;;;;;;5012812;28;20022;-76
2021/10/20 03:33:17;;;;;;;7.82;2.90;;;1.30;90.60;;;;;;5012971;28;20097;-74
2021/10/20 03:35:43;;;;;;;5.32;2.80;;;1.40;90.30;;;;;;5012819;28;20041;-75
2021/10/20 03:38:09;;;;;;;3.90;2.85;;;1.40;90.10;;;;;;5011789;28;20029;-75
2021/10/20 03:40:35;;;;;;;4.13;2.83;;;1.40;90.10;;;;;;5013196;28;20387;-74
2021/10/20 03:43:02;;;;;;;3.05;2.63;;;1.50;90.20;;;;;;5012552;28;20040;-74
2021/10/20 03:45:28;;;;;;;3.58;2.63;;;1.60;90.20;;;;;;5012807;28;20037;-76
2021/10/20 03:47:53;;;;;;;5.30;2.13;;;1.70;90.20;;;;;;5012765;28;20018;-74
2021/10/20 03:50:19;;;;;;;3.00;2.25;;;1.70;90.20;;;;;;5013120;28;20034;-74
2021/10/20 03:52:45;;;;;;;5.15;3.20;;;1.80;89.80;;;;;;5012701;28;20029;-75
2021/10/20 03:55:11;;;;;;;3.05;2.00;;;1.80;88.50;;;;;;5013147;28;20364;-75
2021/10/20 03:57:38;;;;;;;2.70;2.03;;;1.70;88.00;;;;;;5012760;28;20026;-75
2021/10/20 04:00:06;;;;;;;;;;;1.70;88.10;;;;;;5013215;28;20364;-75
2021/10/20 04:02:32;;;;;;;4.03;2.00;;;1.70;88.20;;;;;;5024721;28;20362;-72
2021/10/20 04:04:58;;;;;;;3.35;2.00;;;1.60;88.10;;;;;;5025161;28;20045;-75
2021/10/20 04:07:23;;;;;;;2.72;2.00;;;1.60;88.50;;;;;;5012575;28;20415;-74
2021/10/20 04:09:49;;;;;;;2.40;2.17;;;1.60;88.70;;;;;;5012448;28;20026;-72
2021/10/20 04:12:15;;;;;;;3.67;1.73;;;1.60;88.70;;;;;;5012357;28;20021;-74
2021/10/20 04:14:41;;;;;;;3.40;2.15;;;1.60;88.80;;;;;;5013653;28;20034;-73
2021/10/20 04:17:06;;;;;;;2.30;2.00;;;1.60;88.60;;;;;;5016144;28;20219;-74
2021/10/20 04:19:32;;;;;;;1.67;1.58;;;1.60;88.40;;;;;;5023115;28;20064;-75
2021/10/20 04:21:58;;;;;;;3.95;2.28;;;1.60;88.20;;;;;;5036020;28;20021;-75
2021/10/20 04:24:24;;;;;;;3.35;2.30;;;1.70;88.00;;;;;;5035912;28;20049;-76
2021/10/20 04:26:49;;;;;;;3.25;2.00;;;1.70;87.80;;;;;;5037418;28;20033;-74
2021/10/20 04:29:15;;;;;;;5.65;2.55;;;1.60;87.40;;;;;;5034368;28;20356;-73
2021/10/20 04:31:41;;;;;;;5.25;2.03;;;1.70;87.60;;;;;;5017785;28;20029;-74
2021/10/20 04:34:07;;;;;;;1.92;1.70;;;1.70;87.50;;;;;;5035464;28;20024;-75
2021/10/20 04:36:32;;;;;;;2.88;2.00;;;1.60;87.50;;;;;;5035706;28;20028;-74
2021/10/20 04:38:58;;;;;;;2.38;2.15;;;1.60;87.50;;;;;;5035478;28;20526;-73
2021/10/20 04:41:24;;;;;;;4.60;2.40;;;1.60;87.30;;;;;;5035400;28;20049;-74
2021/10/20 04:43:50;;;;;;;9.18;2.40;;;1.60;87.30;;;;;;5034992;28;20502;-73
2021/10/20 04:46:16;;;;;;;2.22;2.03;;;1.50;87.40;;;;;;5025311;28;20025;-74
2021/10/20 04:48:42;;;;;;;2.83;2.10;;;1.50;87.60;;;;;;5015437;28;20083;-75
2021/10/20 04:51:08;;;;;;;4.55;2.28;;;1.40;87.70;;;;;;5047261;28;20026;-75
2021/10/20 04:53:34;;;;;;;4.75;2.17;;;1.40;87.80;;;;;;5015444;28;20069;-74
2021/10/20 04:56:00;;;;;;;2.20;1.98;;;1.40;87.80;;;;;;5015528;28;20513;-74
2021/10/20 04:58:26;;;;;;;3.70;2.30;;;1.40;87.90;;;;;;5015270;28;20037;-75
2021/10/20 05:00:52;;;;;;;2.65;1.80;;;1.30;87.90;;;;;;5013872;28;20030;-75
2021/10/20 05:03:18;;;;;;;3.47;2.50;;;1.30;88.00;;;;;;5033985;28;20021;-73
2021/10/20 05:05:44;;;;;;;4.05;2.60;;;1.30;88.10;;;;;;5032606;28;20033;-74
2021/10/20 05:08:09;;;;;;;2.60;2.00;;;1.30;88.10;;;;;;5015305;28;20034;-74
2021/10/20 05:10:38;;;;;;;3.63;2.05;;;1.30;88.10;;;;;;5013825;28;20495;-75
2021/10/20 05:13:05;;;;;;;4.05;2.20;;;1.20;88.20;;;;;;5014815;28;20022;-75
2021/10/20 05:15:31;;;;;;;6.15;2.35;;;1.20;88.20;;;;;;5014945;28;20049;-73
2021/10/20 05:17:57;;;;;;;3.30;2.22;;;1.10;88.30;;;;;;5015093;28;20026;-75
2021/10/20 05:20:23;;;;;;;3.55;2.35;;;1.10;88.60;;;;;;5013281;28;20037;-76
2021/10/20 05:22:49;;;;;;;4.00;2.42;;;1.10;88.60;;;;;;5014660;28;20385;-75
2021/10/20 05:25:16;;;;;;;9.80;3.42;;;1.10;88.40;;;;;;5014553;28;20500;-74
2021/10/20 05:27:43;;;;;;;3.03;2.03;;;1.10;88.40;;;;;;5013856;28;20022;-75
2021/10/20 05:30:10;;;;;;;5.07;2.55;;;1.10;88.40;;;;;;5014571;28;20034;-75
2021/10/20 05:32:35;;;;;;;4.03;2.60;;;1.10;88.40;;;;;;5014650;28;20029;-76
2021/10/20 05:35:02;;;;;;;3.72;2.08;;;1.10;88.40;;;;;;5014631;28;20509;-75
2021/10/20 05:37:28;;;;;;;5.75;4.15;;;1.20;88.30;;;;;;5014667;28;20029;-75
2021/10/20 05:39:53;;;;;;;3.58;2.15;;;1.20;88.20;;;;;;5014740;28;20025;-75
2021/10/20 05:42:20;;;;;;;6.20;2.92;;;1.20;88.10;;;;;;5014735;28;20036;-75
2021/10/20 05:44:47;;;;;;;2.67;2.10;;;1.20;88.00;;;;;;5014255;28;20053;-76
2021/10/20 05:47:13;;;;;;;4.15;2.40;;;1.20;88.10;;;;;;5014604;28;20259;-76
2021/10/20 05:49:39;;;;;;;4.22;2.95;;;1.20;88.20;;;;;;5014097;28;20164;-76
2021/10/20 05:52:07;;;;;;;8.82;2.95;;;1.20;88.20;;;;;;5014244;28;20101;-75
2021/10/20 05:54:33;;;;;;;4.28;2.88;;;1.30;88.20;;;;;;5014346;28;20147;-75
2021/10/20 05:56:59;;;;;;;5.20;2.47;;;1.30;88.10;;;;;;5014240;28;20057;-76
2021/10/20 05:59:25;;;;;;;2.75;2.13;;;1.30;88.10;;;;;;5014051;28;20446;-75
2021/10/20 06:01:51;;;;;;;2.72;2.15;;;1.30;87.70;;;;;;5020727;28;20029;-75
2021/10/20 06:04:18;;;;;;;6.00;3.78;;;1.40;87.60;;;;;;5032798;28;20071;-75
2021/10/20 06:06:46;;;;;;;4.27;2.37;;;1.40;87.30;;;;;;5013418;28;20557;-76
2021/10/20 06:09:12;;;;;;;3.63;2.33;;;1.50;87.10;;;;;;5013882;28;20259;-75
2021/10/20 06:11:39;;;;;;;4.45;2.53;;;1.50;86.90;;;;;;5014435;28;20383;-75
2021/10/20 06:14:04;;;;;;;3.08;2.35;;;1.60;86.90;;;;;;5013366;28;20072;-75
2021/10/20 06:16:35;;;;;;;3.17;2.20;;;1.70;86.80;;;;;;5013419;28;20407;-74
2021/10/20 06:19:09;;;;;;;5.07;2.00;;;1.80;86.20;;;;;;5013886;28;20046;-76
2021/10/20 06:21:35;;;;;;;2.38;2.10;;;2.00;85.10;;;;;;5032690;28;20057;-74
2021/10/20 06:24:00;;;;;;;4.53;2.70;;;2.20;85.10;;;;;;5034947;28;20064;-74
2021/10/20 06:26:26;;;;;;;5.65;3.03;;;2.30;83.80;;;;;;5034417;28;20025;-75
2021/10/20 06:28:54;;;;;;;3.45;2.35;;;2.40;83.80;;;;;;5033939;28;20025;-74
2021/10/20 06:31:20;;;;;;;2.97;2.28;;;2.60;83.60;;;;;;5034189;28;20036;-76
2021/10/20 06:33:45;;;;;;;3.63;2.60;;;2.60;83.00;;;;;;5031998;28;20025;-74
2021/10/20 06:36:30;;;;;;;4.38;2.60;;;2.60;83.20;;;;;;5033967;28;20064;-75
2021/10/20 06:38:56;;;;;;;5.18;2.75;;;2.70;83.10;;;;;;5032291;28;20017;-75
2021/10/20 06:41:22;;;;;;;3.42;2.63;;;2.80;82.70;;;;;;5032954;28;20017;-77
2021/10/20 06:43:48;;;;;;;3.25;2.25;;;2.90;82.40;;;;;;5032781;28;20525;-75
2021/10/20 06:46:14;;;;;;;3.53;2.22;;;3.00;82.30;;;;;;5032679;28;20439;-74
2021/10/20 06:48:40;;;;;;;4.15;2.50;;;3.10;81.70;;;;;;5032833;28;20075;-75
2021/10/20 06:51:06;;;;;;;4.28;2.58;;;3.20;81.30;;;;;;5032997;28;20053;-74
2021/10/20 06:53:32;;;;;;;6.35;2.90;;;3.20;81.00;;;;;;5016190;28;20025;-75
2021/10/20 06:56:05;;;;;;;4.85;3.53;;;3.30;81.00;;;;;;5013184;28;20438;-74
2021/10/20 06:58:31;;;;;;;4.22;3.38;;;3.10;80.70;;;;;;5012489;28;20433;-75
2021/10/20 07:00:57;;;;;;;4.75;3.60;;;3.10;81.30;;;;;;5021668;28;20087;-76
2021/10/20 07:03:23;;;;;;;4.00;3.30;;;3.30;81.50;;;;;;5028535;28;20018;-77
2021/10/20 07:05:49;;;;;;;6.72;2.80;;;3.50;81.00;;;;;;5024095;28;20391;-75
2021/10/20 07:08:15;;;;;;;5.38;3.25;;;3.70;80.70;;;;;;5026490;28;20033;-73
2021/10/20 07:10:41;;;;;;;6.95;3.38;;;3.80;80.00;;;;;;5013695;28;20022;-75
2021/10/20 07:13:07;;;;;;;5.30;2.85;;;3.70;79.40;;;;;;5012717;28;20336;-74
2021/10/20 07:15:33;;;;;;;3.88;2.42;;;3.60;79.50;;;;;;5013178;28;20425;-74
2021/10/20 07:17:59;;;;;;;5.47;2.40;;;3.60;79.20;;;;;;5012807;28;20026;-75
2021/10/20 07:20:25;;;;;;;6.50;2.50;;;3.70;79.50;;;;;;5012738;28;20029;-73
2021/10/20 07:22:51;;;;;;;3.80;2.60;;;3.90;79.70;;;;;;5012807;28;20022;-73
2021/10/20 07:25:18;;;;;;;3.55;2.42;;;4.20;78.80;;;;;;5012877;28;20034;-73
2021/10/20 07:27:48;;;;;;;5.07;3.65;;;4.30;77.70;;;;;;5012913;28;20356;-75
2021/10/20 07:30:15;;;;;;;3.95;2.85;;;4.50;77.10;;;;;;5012802;28;20044;-74
2021/10/20 07:32:42;;;;;;;6.47;3.80;;;4.50;76.30;;;;;;5013023;28;20383;-75
2021/10/20 07:35:14;;;;;;;5.30;2.95;;;4.50;76.30;;;;;;5012820;28;20034;-74
2021/10/20 07:37:40;;;;;;;4.15;3.28;;;4.60;76.10;;;;;;5012383;28;20034;-74
2021/10/20 07:41:00;;;;;;;4.88;3.20;;;4.40;75.80;;;;;;5012819;28;20022;-76
2021/10/20 07:44:14;;;;;;;5.32;3.22;;;4.30;76.40;;;;;;4986423;28;20133;-76
2021/10/20 07:46:40;;;;;;;4.63;3.00;;;4.10;77.00;;;;;;4935037;28;20130;-73
2021/10/20 07:49:06;;;;;;;5.03;3.13;;;4.00;77.10;;;;;;4971567;28;20031;-75
2021/10/20 07:52:30;;;;;;;;;;;;;;;;;;;;;
2021/10/20 07:55:27;;;;;;;3.92;2.97;;;4.10;76.90;;;;;;4936758;28;20040;-75
2021/10/20 07:57:54;;;;;;;5.53;3.08;;;4.00;76.70;;;;;;4906624;29;20135;-75
2021/10/20 08:00:21;;;;;;;4.82;2.67;;;4.00;76.80;;;;;;4951456;28;20057;-73
2021/10/20 08:03:04;;;;;;;3.70;3.10;;;4.10;76.70;;;;;;4964329;28;20118;-76
2021/10/20 08:06:18;;;;;;;4.57;3.50;;;4.00;77.10;;;;;;4939588;29;20496;-75
2021/10/20 08:08:43;;;;;;;7.07;3.72;;;3.90;77.10;;;;;;4955658;29;20112;-73
2021/10/20 08:11:09;;;;;;;4.57;3.67;;;3.90;77.40;;;;;;4955540;29;20110;-74
2021/10/20 08:13:41;;;;;;;5.03;3.97;;;3.90;77.50;;;;;;4955782;29;20031;-75
2021/10/20 08:16:09;;;;;;;5.70;3.88;;;4.00;77.40;;;;;;4955509;29;20449;-76
2021/10/20 08:18:38;;;;;;;5.63;3.35;;;4.00;77.20;;;;;;4955522;29;20035;-75
2021/10/20 08:21:12;;;;;;;10.98;3.97;;;4.10;77.40;;;;;;4955339;29;20466;-75
2021/10/20 08:27:27;;;;;;;;;;;;;;;;;;;;;
2021/10/20 08:33:44;;;;;;;6.25;2.45;;;5.20;75.60;;;;;;4879447;29;20056;-74
2021/10/20 08:36:09;;;;;;;5.25;3.08;;;5.30;72.40;;;;;;4986264;28;20037;-74
2021/10/20 08:38:56;;;;;;;4.88;3.75;;;5.20;72.40;;;;;;5053804;28;20036;-75
2021/10/20 08:41:25;;;;;;;5.18;2.47;;;5.10;71.90;;;;;;5046702;28;20040;-74
2021/10/20 08:43:52;;;;;;;5.55;3.38;;;5.00;71.10;;;;;;5053933;28;20048;-74
2021/10/20 08:46:25;;;;;;;8.50;3.03;;;4.80;72.20;;;;;;5053735;28;20405;-74
2021/10/20 08:48:56;;;;;;;5.60;2.85;;;4.80;72.30;;;;;;5053430;28;20065;-73
2021/10/20 08:51:23;;;;;;;5.80;3.60;;;4.70;72.10;;;;;;5036691;28;20083;-75
2021/10/20 08:53:50;;;;;;;5.25;3.42;;;4.60;72.20;;;;;;5036584;28;20064;-75
2021/10/20 08:56:18;;;;;;;6.38;3.45;;;4.50;72.80;;;;;;5053914;28;20032;-73
2021/10/20 08:58:44;;;;;;;5.43;3.67;;;4.50;72.70;;;;;;5053463;28;20021;-75
2021/10/20 09:01:11;;;;;;;5.95;2.75;;;4.30;73.40;;;;;;5025717;28;20057;-74
2021/10/20 09:03:37;;;;;;;4.85;2.33;;;4.30;73.50;;;;;;5014261;28;20100;-75
2021/10/20 09:06:02;;;;;;;3.53;2.40;;;4.30;73.60;;;;;;5015009;28;20114;-75
2021/10/20 09:08:45;;;;;;;4.05;2.50;;;4.30;73.50;;;;;;5015348;28;20129;-74
2021/10/20 09:11:29;;;;;;;3.20;2.55;;;4.30;73.00;;;;;;5014695;28;20057;-75
2021/10/20 09:14:04;;;;;;;4.45;3.03;;;4.30;73.30;;;;;;5014804;28;20030;-74
2021/10/20 09:16:31;;;;;;;4.05;2.58;;;4.20;73.70;;;;;;5014433;28;20430;-74
2021/10/20 09:18:59;;;;;;;3.33;2.10;;;4.30;74.00;;;;;;5014797;28;20030;-73
2021/10/20 09:21:28;;;;;;;2.38;1.90;;;4.50;73.30;;;;;;5013477;28;20053;-74
2021/10/20 09:23:54;;;;;;;3.45;2.08;;;4.70;72.00;;;;;;5013816;28;20026;-74
2021/10/20 09:26:20;;;;;;;4.00;1.95;;;4.90;71.70;;;;;;5014657;28;20042;-74
2021/10/20 09:28:46;;;;;;;3.33;1.83;;;5.10;70.10;;;;;;5014989;28;20049;-74
2021/10/20 09:31:12;;;;;;;4.18;2.25;;;5.40;70.10;;;;;;5014936;28;20044;-73
2021/10/20 09:33:40;;;;;;;4.07;2.70;;;5.50;68.70;;;;;;5014378;28;20061;-75
2021/10/20 09:36:07;;;;;;;2.17;1.98;;;5.50;68.50;;;;;;5014735;28;20076;-75
2021/10/20 09:38:36;;;;;;;3.22;1.95;;;5.10;68.30;;;;;;5014609;28;20054;-75
2021/10/20 09:41:06;;;;;;;5.47;2.08;;;4.90;69.40;;;;;;5014296;28;20042;-74
2021/10/20 09:43:38;;;;;;;4.45;2.33;;;4.80;70.00;;;;;;5014335;28;20037;-75
2021/10/20 09:46:04;;;;;;;3.58;2.42;;;4.90;70.40;;;;;;5014313;28;20034;-75
2021/10/20 09:48:30;;;;;;;11.63;3.05;;;4.90;70.40;;;;;;5014401;28;20026;-73
2021/10/20 09:50:59;;;;;;;5.10;2.47;;;5.00;70.70;;;;;;5014100;28;20101;-75
2021/10/20 09:53:28;;;;;;;8.48;2.97;;;5.00;70.20;;;;;;5013819;28;20030;-74
2021/10/20 09:55:58;;;;;;;4.25;2.33;;;5.20;70.60;;;;;;5012907;28;20122;-74
2021/10/20 09:58:24;;;;;;;4.85;2.45;;;5.90;70.10;;;;;;5013984;28;20365;-75
2021/10/20 10:00:56;;;;;;;2.58;2.00;;;6.50;67.70;;;;;;5025766;28;20437;-75
2021/10/20 10:03:22;;;;;;;7.85;3.03;;;6.90;65.20;;;;;;5034035;28;20100;-76
2021/10/20 10:05:48;;;;;;;3.55;1.80;;;7.00;63.90;;;;;;5033849;28;20042;-75
2021/10/20 10:08:14;;;;;;;5.90;2.42;;;6.90;63.80;;;;;;5034254;28;20379;-74
2021/10/20 10:10:40;;;;;;;3.13;2.03;;;6.70;63.90;;;;;;5035915;28;20035;-75
2021/10/20 10:13:23;;;;;;;3.15;2.60;;;6.50;64.00;;;;;;5033960;28;20022;-75
2021/10/20 10:15:50;;;;;;;7.22;4.15;;;6.40;63.70;;;;;;5033594;28;20025;-74
2021/10/20 10:18:19;;;;;;;4.90;3.42;;;6.30;63.40;;;;;;5033506;28;20104;-73
2021/10/20 10:20:45;;;;;;;5.10;2.55;;;6.20;63.30;;;;;;5033655;28;20029;-75
2021/10/20 10:23:23;;;;;;;7.40;3.33;;;6.20;63.40;;;;;;5033318;28;20482;-75
2021/10/20 10:26:06;;;;;;;;;;;6.20;63.20;;;;;;5033514;28;20044;-75
2021/10/20 10:28:34;;;;;;;4.65;2.53;;;6.10;63.50;;;;;;5033288;28;19992;-74
2021/10/20 10:31:08;;;;;;;3.95;1.83;;;6.00;63.10;;;;;;5033106;28;20022;-74
2021/10/20 10:33:39;;;;;;;5.10;2.75;;;5.80;63.20;;;;;;5033012;28;20061;-75
2021/10/20 10:36:19;;;;;;;3.97;2.28;;;5.80;63.40;;;;;;5033180;28;20025;-75
2021/10/20 10:38:57;;;;;;;4.22;2.63;;;5.80;63.50;;;;;;5031502;28;20371;-74
2021/10/20 10:41:23;;;;;;;2.95;2.08;;;5.90;63.50;;;;;;5031910;28;20505;-75
2021/10/20 10:44:05;;;;;;;4.30;1.83;;;5.90;63.20;;;;;;5032649;28;20073;-73
2021/10/20 10:47:07;;;;;;;4.03;2.53;;;5.80;63.30;;;;;;5032484;28;20427;-74
2021/10/20 10:49:39;;;;;;;3.25;2.20;;;5.70;64.60;;;;;;5011309;28;20041;-75
2021/10/20 10:52:34;;;;;;;4.93;3.03;;;5.80;64.90;;;;;;5011551;28;20030;-73
2021/10/20 10:55:08;;;;;;;2.42;1.67;;;5.80;64.90;;;;;;4994660;28;20025;-73
2021/10/20 10:57:53;;;;;;;5.93;2.85;;;5.60;63.30;;;;;;5011234;28;20026;-75
2021/10/20 11:00:18;;;;;;;3.63;2.40;;;5.20;64.80;;;;;;5010968;28;20069;-75
2021/10/20 11:02:57;;;;;;;3.22;1.75;;;5.20;65.40;;;;;;5010996;28;20583;-75
2021/10/20 11:05:31;;;;;;;5.60;2.50;;;5.40;66.20;;;;;;5010595;28;20080;-75
2021/10/20 11:08:14;;;;;;;7.68;2.50;;;5.60;65.30;;;;;;5010888;28;20048;-74
2021/10/20 11:10:42;;;;;;;7.68;3.17;;;5.60;64.70;;;;;;5011095;28;20029;-74
2021/10/20 11:13:09;;;;;;;4.65;2.22;;;5.60;64.70;;;;;;5010813;28;20152;-75
2021/10/20 11:15:38;;;;;;;6.97;2.67;;;5.60;64.60;;;;;;5011007;28;20030;-75
2021/10/20 11:18:07;;;;;;;4.88;2.50;;;5.60;64.20;;;;;;4994200;28;20117;-75
2021/10/20 11:20:39;;;;;;;3.65;2.60;;;5.60;64.40;;;;;;5010824;28;20388;-75
2021/10/20 11:23:08;;;;;;;3.40;2.40;;;5.70;63.70;;;;;;5011148;28;20030;-73
2021/10/20 11:25:46;;;;;;;2.45;2.15;;;5.70;63.70;;;;;;5001694;28;20038;-73
2021/10/20 11:28:12;;;;;;;5.80;2.83;;;5.60;62.60;;;;;;5016778;28;20025;-73
2021/10/20 11:30:39;;;;;;;6.20;3.03;;;5.60;62.80;;;;;;5015521;28;20060;-75
2021/10/20 11:33:12;;;;;;;3.63;2.13;;;5.70;62.40;;;;;;5017013;28;20033;-74
2021/10/20 11:35:38;;;;;;;3.80;1.73;;;5.70;62.10;;;;;;5015730;28;20402;-74
2021/10/20 11:38:12;;;;;;;3.58;2.05;;;5.80;62.10;;;;;;5017150;28;20018;-75
2021/10/20 11:40:47;;;;;;;2.95;1.80;;;5.80;61.80;;;;;;5016588;28;20067;-75
2021/10/20 11:43:20;;;;;;;3.30;2.15;;;5.90;62.20;;;;;;5017162;28;20022;-75
2021/10/20 11:45:47;;;;;;;5.60;2.50;;;5.90;62.20;;;;;;5016548;28;20046;-75
2021/10/20 11:48:18;;;;;;;4.90;2.58;;;5.90;62.50;;;;;;5016915;28;20020;-73
2021/10/20 11:50:51;;;;;;;5.03;2.10;;;5.90;62.90;;;;;;5015352;28;20448;-73
2021/10/20 11:53:17;;;;;;;5.80;3.33;;;5.70;62.60;;;;;;5016534;28;20041;-75
2021/10/20 11:55:46;;;;;;;5.60;3.20;;;5.60;62.80;;;;;;5016694;28;20113;-74
2021/10/20 11:58:20;;;;;;;5.07;3.00;;;5.50;63.30;;;;;;5016984;28;20026;-75
2021/10/20 12:00:50;;;;;;;7.43;2.38;;;5.40;63.40;;;;;;5027615;28;20032;-73
2021/10/20 12:03:16;;;;;;;3.95;2.10;;;5.40;63.70;;;;;;5036344;28;20029;-74
2021/10/20 12:05:42;;;;;;;6.72;3.20;;;5.40;63.60;;;;;;5035771;28;20399;-75
2021/10/20 12:08:08;;;;;;;5.88;2.22;;;5.30;63.60;;;;;;5035325;28;20433;-74
2021/10/20 12:10:34;;;;;;;5.82;2.45;;;5.30;64.00;;;;;;5036406;28;20037;-74
2021/10/20 12:13:02;;;;;;;3.65;1.80;;;5.30;63.90;;;;;;5036315;28;20025;-74
2021/10/20 12:15:28;;;;;;;4.65;2.22;;;5.30;63.90;;;;;;5036323;28;20018;-75
2021/10/20 12:17:54;;;;;;;6.35;2.03;;;5.10;64.40;;;;;;5035832;28;20022;-75
2021/10/20 12:20:20;;;;;;;6.32;1.27;;;5.10;64.90;;;;;;5035908;28;20474;-75
2021/10/20 12:22:50;;;;;;;4.90;2.17;;;4.80;65.20;;;;;;5034485;28;20133;-74
2021/10/20 12:25:17;;;;;;;2.58;1.50;;;4.80;65.90;;;;;;5035815;28;20044;-75
2021/10/20 12:27:43;;;;;;;6.82;2.33;;;4.70;65.80;;;;;;5035673;28;20017;-74
2021/10/20 12:30:11;;;;;;;8.35;2.78;;;4.80;66.20;;;;;;5035852;28;20041;-75
2021/10/20 12:32:39;;;;;;;;;;;4.80;66.30;;;;;;5035889;28;20552;-73
2021/10/20 12:35:11;;;;;;;5.45;1.88;;;4.80;65.90;;;;;;5033849;28;19912;-74
2021/10/20 12:37:43;;;;;;;5.10;1.75;;;4.60;65.90;;;;;;5035702;28;20109;-73
2021/10/20 12:40:20;;;;;;;3.75;2.13;;;4.60;66.20;;;;;;5035413;28;20038;-73
2021/10/20 12:42:51;;;;;;;2.92;1.75;;;4.60;66.40;;;;;;5035070;28;20413;-72
2021/10/20 12:45:20;;;;;;;1.40;1.23;;;4.70;66.40;;;;;;5033702;28;20045;-74
2021/10/20 12:47:55;;;;;;;4.07;1.48;;;4.80;66.00;;;;;;5033853;28;20033;-74
2021/10/20 12:50:24;;;;;;;4.25;1.83;;;4.70;66.00;;;;;;5035500;28;20022;-74
2021/10/20 12:52:50;;;;;;;4.05;2.17;;;4.70;66.00;;;;;;5035800;28;20026;-74
2021/10/20 12:55:24;;;;;;;2.90;2.05;;;4.60;66.20;;;;;;5034940;28;20029;-74
2021/10/20 12:57:51;;;;;;;5.50;2.28;;;4.70;66.60;;;;;;5016204;28;20594;-73
2021/10/20 13:00:26;;;;;;;4.10;2.10;;;4.70;66.50;;;;;;5022323;28;20379;-74
2021/10/20 13:02:53;;;;;;;5.57;1.70;;;4.80;66.40;;;;;;5034873;28;20031;-75
2021/10/20 13:05:40;;;;;;;5.35;1.50;;;4.80;66.30;;;;;;5034971;28;20072;-74
2021/10/20 13:08:27;;;;;;;2.33;1.80;;;4.80;66.40;;;;;;5033940;28;20053;-74
2021/10/20 13:10:54;;;;;;;3.85;1.98;;;4.90;66.10;;;;;;5035141;28;20486;-74
2021/10/20 13:13:22;;;;;;;4.53;1.95;;;4.80;66.20;;;;;;5034810;28;20021;-74
2021/10/20 13:15:51;;;;;;;3.00;1.30;;;4.80;66.20;;;;;;5034557;28;20031;-74